Time;durP1;ratioP1;P1;durP2;ratioP2;P2;SDS_P1;SDS_P2;PMS_P1;PMS_P2;Temp;Humidity;BMP_temperature;BMP_pressure;BME280_temperature;BME280_humidity;BME280_pressure;Samples;Min_cycle;Max_cycle;Signal;HPM_P1;HPM_P2
2021/11/28 00:00:18;;;;;;;24.50;13.97;;;;;;;;;;5027132;28;20223;-73
2021/11/28 00:02:51;;;;;;;22.13;13.40;;;;;;;;;;5068519;28;20262;-72
2021/11/28 00:05:18;;;;;;;25.53;13.27;;;;;;;;;;5052164;28;20229;-73
2021/11/28 00:07:54;;;;;;;23.57;14.00;;;;;;;;;;5069169;28;20222;-73
2021/11/28 00:13:23;;;;;;;23.03;13.80;;;;;;;;;;5031756;28;20237;-73
2021/11/28 00:15:49;;;;;;;21.27;13.30;;;;;;;;;;5056500;28;20275;-73
2021/11/28 00:18:17;;;;;;;25.37;14.40;;;;;;;;;;5078325;28;20688;-75
2021/11/28 00:20:47;;;;;;;25.07;15.13;;;;;;;;;;5089280;28;20229;-74
2021/11/28 00:23:13;;;;;;;24.27;15.57;;;;;;;;;;5021195;28;20215;-73
2021/11/28 00:25:39;;;;;;;26.63;15.50;;;;;;;;;;5051890;28;20740;-73
2021/11/28 00:28:12;;;;;;;25.17;14.73;;;;;;;;;;5035201;28;20215;-73
2021/11/28 00:30:47;;;;;;;27.30;15.87;;;;;;;;;;5068840;28;20218;-73
2021/11/28 00:33:15;;;;;;;21.43;15.13;;;;;;;;;;5043630;28;20720;-73
2021/11/28 00:35:44;;;;;;;25.17;14.67;;;;;;;;;;5068386;28;20215;-72
2021/11/28 00:38:17;;;;;;;25.93;15.97;;;;;;;;;;5035905;28;20258;-73
2021/11/28 00:40:42;;;;;;;24.47;16.73;;;;;;;;;;5053764;28;20230;-73
2021/11/28 00:43:08;;;;;;;27.93;17.33;;;;;;;;;;5046782;28;20225;-73
2021/11/28 00:45:36;;;;;;;25.37;16.47;;;;;;;;;;5075990;28;20214;-72
2021/11/28 00:48:02;;;;;;;27.07;17.80;;;;;;;;;;5081321;28;20241;-72
2021/11/28 00:50:39;;;;;;;27.73;17.83;;;;;;;;;;5055407;28;20258;-73
2021/11/28 00:53:08;;;;;;;24.97;17.43;;;;;;;;;;5062066;28;20218;-73
2021/11/28 00:55:36;;;;;;;32.60;18.93;;;;;;;;;;5062277;28;20609;-73
2021/11/28 00:58:04;;;;;;;26.40;17.83;;;;;;;;;;5080571;28;20222;-73
2021/11/28 01:00:30;;;;;;;27.57;19.33;;;;;;;;;;5071639;28;20231;-73
2021/11/28 01:02:58;;;;;;;28.20;17.93;;;;;;;;;;5038783;28;20579;-73
2021/11/28 01:05:27;;;;;;;26.27;18.77;;;;;;;;;;5035264;28;20701;-74
2021/11/28 01:07:53;;;;;;;27.27;18.33;;;;;;;;;;5035544;28;20230;-73
2021/11/28 01:10:21;;;;;;;33.07;19.77;;;;;;;;;;5069530;28;20722;-73
2021/11/28 01:12:47;;;;;;;32.03;19.57;;;;;;;;;;5054912;28;20214;-73
2021/11/28 01:15:21;;;;;;;29.77;19.80;;;;;;;;;;5070583;28;20215;-73
2021/11/28 01:17:47;;;;;;;26.53;18.30;;;;;;;;;;5054951;28;20223;-73
2021/11/28 01:20:18;;;;;;;29.57;18.93;;;;;;;;;;5054759;28;20222;-73
2021/11/28 01:22:46;;;;;;;30.20;19.33;;;;;;;;;;5007042;28;20218;-73
2021/11/28 01:25:12;;;;;;;30.63;18.77;;;;;;;;;;5054676;28;20226;-73
2021/11/28 01:27:41;;;;;;;35.17;19.97;;;;;;;;;;5038253;28;20280;-73
2021/11/28 01:30:09;;;;;;;33.93;20.40;;;;;;;;;;5032334;28;20254;-73
2021/11/28 01:32:36;;;;;;;31.50;20.83;;;;;;;;;;5036759;28;20606;-73
2021/11/28 01:35:04;;;;;;;27.23;18.47;;;;;;;;;;5053861;28;20310;-74
2021/11/28 01:37:34;;;;;;;32.77;20.10;;;;;;;;;;5055573;28;20215;-73
2021/11/28 01:40:12;;;;;;;35.63;19.80;;;;;;;;;;5038786;28;20448;-73
2021/11/28 01:42:49;;;;;;;31.37;20.03;;;;;;;;;;5038424;28;20602;-73
2021/11/28 01:45:23;;;;;;;35.67;21.23;;;;;;;;;;5054291;28;20218;-73
2021/11/28 01:47:48;;;;;;;36.63;21.20;;;;;;;;;;5055411;28;20688;-74
2021/11/28 01:50:19;;;;;;;32.70;21.17;;;;;;;;;;5054838;28;20284;-73
2021/11/28 01:52:47;;;;;;;31.53;20.07;;;;;;;;;;5036572;28;20687;-73
2021/11/28 01:55:19;;;;;;;27.57;19.57;;;;;;;;;;5050527;28;20868;-72
2021/11/28 01:57:46;;;;;;;38.90;21.13;;;;;;;;;;5064375;28;20245;-74
2021/11/28 02:00:13;;;;;;;32.43;20.40;;;;;;;;;;5050724;28;20598;-73
2021/11/28 02:02:47;;;;;;;31.83;20.77;;;;;;;;;;5071882;28;20214;-73
2021/11/28 02:05:18;;;;;;;32.70;19.70;;;;;;;;;;5069601;28;20226;-73
2021/11/28 02:07:49;;;;;;;32.67;20.50;;;;;;;;;;5034765;28;20261;-73
2021/11/28 02:10:15;;;;;;;31.27;20.97;;;;;;;;;;5033580;28;20223;-73
2021/11/28 02:12:40;;;;;;;30.87;20.00;;;;;;;;;;5034561;28;20215;-73
2021/11/28 02:15:10;;;;;;;31.43;19.63;;;;;;;;;;5083080;28;20233;-73
2021/11/28 02:17:44;;;;;;;31.53;19.83;;;;;;;;;;5055077;28;20305;-74
2021/11/28 02:20:18;;;;;;;31.93;21.07;;;;;;;;;;5032186;28;20261;-74
2021/11/28 02:22:47;;;;;;;32.40;20.83;;;;;;;;;;5054707;28;20291;-73
2021/11/28 02:25:15;;;;;;;32.40;20.13;;;;;;;;;;5060539;28;20214;-73
2021/11/28 02:27:41;;;;;;;28.97;19.80;;;;;;;;;;5050455;28;20226;-73
2021/11/28 02:30:12;;;;;;;29.60;19.23;;;;;;;;;;5028095;28;20692;-73
2021/11/28 02:32:43;;;;;;;30.40;20.03;;;;;;;;;;5023141;28;20265;-73
2021/11/28 02:35:14;;;;;;;29.20;20.03;;;;;;;;;;5033514;28;20273;-72
2021/11/28 02:37:42;;;;;;;30.33;20.13;;;;;;;;;;5037312;28;20227;-72
2021/11/28 02:40:19;;;;;;;30.13;20.37;;;;;;;;;;5020564;28;20236;-72
2021/11/28 02:42:46;;;;;;;29.67;19.43;;;;;;;;;;5057194;28;20309;-74
2021/11/28 02:45:12;;;;;;;33.00;19.53;;;;;;;;;;5052518;28;20313;-72
2021/11/28 02:47:43;;;;;;;29.30;18.13;;;;;;;;;;5037416;28;20575;-71
2021/11/28 02:50:10;;;;;;;25.87;17.43;;;;;;;;;;5037404;28;20230;-74
2021/11/28 02:52:36;;;;;;;24.80;17.03;;;;;;;;;;5019662;28;20218;-72
2021/11/28 02:55:02;;;;;;;26.40;16.23;;;;;;;;;;5069635;28;20730;-73
2021/11/28 02:57:31;;;;;;;23.37;17.03;;;;;;;;;;5033489;28;20307;-73
2021/11/28 02:59:56;;;;;;;25.90;18.07;;;;;;;;;;5031852;28;20226;-74
2021/11/28 03:02:25;;;;;;;25.93;18.47;;;;;;;;;;5049212;28;20243;-73
2021/11/28 03:04:59;;;;;;;27.00;18.70;;;;;;;;;;5041287;28;20214;-74
2021/11/28 03:07:26;;;;;;;27.23;18.53;;;;;;;;;;5035564;28;20222;-73
2021/11/28 03:09:54;;;;;;;28.63;18.70;;;;;;;;;;5032656;28;20953;-74
2021/11/28 03:12:25;;;;;;;29.00;18.87;;;;;;;;;;5066173;28;20297;-73
2021/11/28 03:14:50;;;;;;;25.37;17.77;;;;;;;;;;5060849;28;20214;-72
2021/11/28 03:17:18;;;;;;;28.17;19.13;;;;;;;;;;5035268;28;20237;-72
2021/11/28 03:19:49;;;;;;;25.37;16.83;;;;;;;;;;5057676;28;20306;-72
2021/11/28 03:22:15;;;;;;;30.20;19.00;;;;;;;;;;5032705;28;20230;-74
2021/11/28 03:24:41;;;;;;;24.97;17.97;;;;;;;;;;5052082;28;20225;-72
2021/11/28 03:27:12;;;;;;;25.40;16.60;;;;;;;;;;5068823;28;20227;-73
2021/11/28 03:29:37;;;;;;;26.90;17.23;;;;;;;;;;5018683;28;20216;-75
2021/11/28 03:32:08;;;;;;;26.30;17.97;;;;;;;;;;5052746;28;20590;-72
2021/11/28 03:34:36;;;;;;;26.67;17.67;;;;;;;;;;5068227;28;20708;-72
2021/11/28 03:37:19;;;;;;;28.53;18.57;;;;;;;;;;5019711;28;20270;-71
2021/11/28 03:39:44;;;;;;;30.00;19.70;;;;;;;;;;5069802;28;20254;-73
2021/11/28 03:42:15;;;;;;;29.73;19.73;;;;;;;;;;5052441;28;20266;-75
2021/11/28 03:44:45;;;;;;;30.00;19.03;;;;;;;;;;5036951;28;20245;-71
2021/11/28 03:47:16;;;;;;;29.77;19.20;;;;;;;;;;5035662;28;20214;-73
2021/11/28 03:49:48;;;;;;;30.97;20.40;;;;;;;;;;5020391;28;20219;-73
2021/11/28 03:52:18;;;;;;;33.63;21.33;;;;;;;;;;5052965;28;20242;-73
2021/11/28 03:54:44;;;;;;;33.30;20.73;;;;;;;;;;5035829;28;20219;-73
2021/11/28 03:57:18;;;;;;;37.30;21.93;;;;;;;;;;5037213;28;20606;-73
2021/11/28 03:59:44;;;;;;;41.50;24.20;;;;;;;;;;5035250;28;20292;-73
2021/11/28 04:02:15;;;;;;;38.40;23.83;;;;;;;;;;5036292;28;20207;-73
2021/11/28 04:04:43;;;;;;;38.40;23.57;;;;;;;;;;5033525;28;20227;-73
2021/11/28 04:07:12;;;;;;;37.60;23.90;;;;;;;;;;5068528;28;20272;-74
2021/11/28 04:09:43;;;;;;;38.77;23.70;;;;;;;;;;5035723;28;20222;-73
2021/11/28 04:12:10;;;;;;;36.00;23.40;;;;;;;;;;5049911;28;20696;-74
2021/11/28 04:14:38;;;;;;;39.27;24.40;;;;;;;;;;5041019;28;20297;-74
2021/11/28 04:17:03;;;;;;;35.17;24.33;;;;;;;;;;5076096;28;20731;-73
2021/11/28 04:19:33;;;;;;;36.73;24.30;;;;;;;;;;5040869;28;20253;-73
2021/11/28 04:22:02;;;;;;;40.03;24.83;;;;;;;;;;5056485;28;20305;-73
2021/11/28 04:24:31;;;;;;;42.80;24.47;;;;;;;;;;5063901;28;20231;-73
2021/11/28 04:27:00;;;;;;;49.10;25.40;;;;;;;;;;5043571;28;20603;-73
2021/11/28 04:29:26;;;;;;;40.97;25.40;;;;;;;;;;5043379;28;20211;-73
2021/11/28 04:31:54;;;;;;;41.67;24.60;;;;;;;;;;5053590;28;20211;-73
2021/11/28 04:34:20;;;;;;;38.47;24.70;;;;;;;;;;5034912;28;20222;-74
2021/11/28 04:36:46;;;;;;;39.93;25.27;;;;;;;;;;5019233;28;20219;-73
2021/11/28 04:39:12;;;;;;;38.40;24.60;;;;;;;;;;5052686;28;20230;-73
2021/11/28 04:41:38;;;;;;;42.77;24.77;;;;;;;;;;5061667;28;20272;-73
2021/11/28 04:44:06;;;;;;;41.73;25.33;;;;;;;;;;5039397;28;20223;-73
2021/11/28 04:46:35;;;;;;;41.43;24.90;;;;;;;;;;5052481;28;20222;-73
2021/11/28 04:49:03;;;;;;;43.87;25.47;;;;;;;;;;5052928;28;20227;-74
2021/11/28 04:51:37;;;;;;;38.90;25.03;;;;;;;;;;5034266;28;20230;-73
2021/11/28 04:54:05;;;;;;;42.70;25.17;;;;;;;;;;5055548;28;20703;-72
2021/11/28 04:56:35;;;;;;;38.17;23.03;;;;;;;;;;5055412;28;20238;-73
2021/11/28 04:59:00;;;;;;;39.23;24.17;;;;;;;;;;5056144;28;20219;-73
2021/11/28 05:01:29;;;;;;;39.67;25.47;;;;;;;;;;5055840;28;20285;-74
2021/11/28 05:04:11;;;;;;;38.53;23.97;;;;;;;;;;5056641;28;20238;-73
2021/11/28 05:06:59;;;;;;;44.03;24.33;;;;;;;;;;5060424;28;20222;-72
2021/11/28 05:09:49;;;;;;;41.67;24.00;;;;;;;;;;5045359;28;20705;-73
2021/11/28 05:12:19;;;;;;;34.00;21.63;;;;;;;;;;5034875;28;20251;-73
2021/11/28 05:14:47;;;;;;;38.90;25.00;;;;;;;;;;5019438;28;20227;-73
2021/11/28 05:17:13;;;;;;;44.10;24.90;;;;;;;;;;5054640;28;20941;-74
2021/11/28 05:19:55;;;;;;;36.90;24.37;;;;;;;;;;5043108;28;20605;-73
2021/11/28 05:22:39;;;;;;;42.67;24.37;;;;;;;;;;5042810;28;20238;-73
2021/11/28 05:25:07;;;;;;;42.00;25.93;;;;;;;;;;5071103;28;20225;-73
2021/11/28 05:27:36;;;;;;;37.37;24.03;;;;;;;;;;5037442;28;20210;-74
2021/11/28 05:30:03;;;;;;;39.10;23.67;;;;;;;;;;5053960;28;20218;-72
2021/11/28 05:32:51;;;;;;;36.63;23.80;;;;;;;;;;5057242;28;20214;-73
2021/11/28 05:35:42;;;;;;;42.33;24.20;;;;;;;;;;5062424;28;20264;-73
2021/11/28 05:38:32;;;;;;;39.07;24.83;;;;;;;;;;5060160;28;20214;-73
2021/11/28 05:41:00;;;;;;;32.00;21.13;;;;;;;;;;5038315;28;20263;-72
2021/11/28 05:43:26;;;;;;;39.70;23.13;;;;;;;;;;5037251;28;20207;-73
2021/11/28 05:45:56;;;;;;;36.37;23.23;;;;;;;;;;5048639;28;20620;-72
2021/11/28 05:48:43;;;;;;;34.33;19.43;;;;;;;;;;5069035;28;20780;-73
2021/11/28 05:51:16;;;;;;;28.20;20.20;;;;;;;;;;5075226;28;20218;-73
2021/11/28 05:53:42;;;;;;;29.23;20.00;;;;;;;;;;5041481;28;20255;-73
2021/11/28 05:56:13;;;;;;;28.23;19.90;;;;;;;;;;5053937;28;20699;-73
2021/11/28 05:58:39;;;;;;;30.67;19.97;;;;;;;;;;5054708;28;20219;-73
2021/11/28 06:01:05;;;;;;;25.00;17.83;;;;;;;;;;5053925;28;20229;-73
2021/11/28 06:03:31;;;;;;;22.27;16.50;;;;;;;;;;5054772;28;20214;-73
2021/11/28 06:05:59;;;;;;;23.83;17.77;;;;;;;;;;5072015;28;20221;-72
2021/11/28 06:08:28;;;;;;;21.93;15.80;;;;;;;;;;5046229;28;20219;-73
2021/11/28 06:10:58;;;;;;;22.47;15.33;;;;;;;;;;5038818;28;20241;-74
2021/11/28 06:13:24;;;;;;;20.23;15.07;;;;;;;;;;5045794;28;20215;-74
2021/11/28 06:16:13;;;;;;;20.27;15.57;;;;;;;;;;5060050;28;20215;-74
2021/11/28 06:19:00;;;;;;;23.17;16.10;;;;;;;;;;5055377;28;20710;-73
2021/11/28 06:21:59;;;;;;;21.70;15.97;;;;;;;;;;5059153;28;20242;-73
2021/11/28 06:24:38;;;;;;;20.67;15.20;;;;;;;;;;5034902;28;20222;-73
2021/11/28 06:27:11;;;;;;;19.83;15.57;;;;;;;;;;5033694;28;20280;-74
2021/11/28 06:29:37;;;;;;;21.73;17.07;;;;;;;;;;5033882;28;20238;-74
2021/11/28 06:32:06;;;;;;;21.97;16.67;;;;;;;;;;5033969;28;20302;-74
2021/11/28 06:34:39;;;;;;;21.93;15.90;;;;;;;;;;5034261;28;20304;-73
2021/11/28 06:37:26;;;;;;;22.17;16.13;;;;;;;;;;5049856;28;20230;-73
2021/11/28 06:40:27;;;;;;;19.30;15.00;;;;;;;;;;5014251;28;20341;-73
2021/11/28 06:43:04;;;;;;;21.20;16.27;;;;;;;;;;5021785;28;20223;-73
2021/11/28 06:45:33;;;;;;;22.73;17.20;;;;;;;;;;5049672;28;20280;-72
2021/11/28 06:48:03;;;;;;;22.73;15.83;;;;;;;;;;5002868;28;20219;-72
2021/11/28 06:50:39;;;;;;;19.97;15.53;;;;;;;;;;5038426;28;20220;-73
2021/11/28 06:53:19;;;;;;;23.33;16.10;;;;;;;;;;5035305;28;20269;-73
2021/11/28 06:55:47;;;;;;;23.30;17.20;;;;;;;;;;5057486;28;20253;-73
2021/11/28 06:58:31;;;;;;;23.37;16.93;;;;;;;;;;5050418;28;20249;-72
2021/11/28 07:00:57;;;;;;;24.10;17.67;;;;;;;;;;5055016;28;20287;-73
2021/11/28 07:03:23;;;;;;;20.10;16.40;;;;;;;;;;5060736;28;20230;-72
2021/11/28 07:05:56;;;;;;;23.73;17.67;;;;;;;;;;5071942;28;20223;-72
2021/11/28 07:08:22;;;;;;;23.50;17.33;;;;;;;;;;5036307;28;20226;-73
2021/11/28 07:10:50;;;;;;;24.53;17.93;;;;;;;;;;5043088;28;20699;-73
2021/11/28 07:13:19;;;;;;;23.57;16.97;;;;;;;;;;5046826;28;20233;-72
2021/11/28 07:15:50;;;;;;;20.17;17.10;;;;;;;;;;5046174;28;20713;-74
2021/11/28 07:18:28;;;;;;;23.03;17.40;;;;;;;;;;5005208;28;20230;-74
2021/11/28 07:21:05;;;;;;;23.37;17.40;;;;;;;;;;5066446;28;20227;-72
2021/11/28 07:23:32;;;;;;;22.40;17.93;;;;;;;;;;5040411;28;20219;-73
2021/11/28 07:26:01;;;;;;;23.63;18.23;;;;;;;;;;5017994;28;20222;-74
2021/11/28 07:28:31;;;;;;;23.77;17.73;;;;;;;;;;5040821;28;20215;-73
2021/11/28 07:31:03;;;;;;;25.07;19.27;;;;;;;;;;5069533;28;20248;-73
2021/11/28 07:33:54;;;;;;;22.67;17.80;;;;;;;;;;5052469;28;20222;-72
2021/11/28 07:36:39;;;;;;;23.83;18.60;;;;;;;;;;5049899;28;20307;-72
2021/11/28 07:39:07;;;;;;;25.90;19.17;;;;;;;;;;5034412;28;20226;-72
2021/11/28 07:41:34;;;;;;;27.60;19.63;;;;;;;;;;5019883;28;20219;-73
2021/11/28 07:44:18;;;;;;;24.80;18.33;;;;;;;;;;5048871;28;20697;-72
2021/11/28 07:47:02;;;;;;;25.33;19.70;;;;;;;;;;5048376;28;20234;-73
2021/11/28 07:49:38;;;;;;;24.20;19.00;;;;;;;;;;5032724;28;20211;-73
2021/11/28 07:52:18;;;;;;;22.37;18.27;;;;;;;;;;5044674;28;20219;-73
2021/11/28 07:54:44;;;;;;;23.37;19.43;;;;;;;;;;5065195;28;20305;-75
2021/11/28 07:57:16;;;;;;;29.40;19.33;;;;;;;;;;5036297;28;20245;-73
2021/11/28 07:59:59;;;;;;;25.93;19.17;;;;;;;;;;5048738;28;20762;-73
2021/11/28 08:02:28;;;;;;;28.10;21.00;;;;;;;;;;5067291;28;20223;-73
2021/11/28 08:04:53;;;;;;;26.97;20.67;;;;;;;;;;5060941;28;20219;-75
2021/11/28 08:07:54;;;;;;;32.40;21.23;;;;;;;;;;5016856;28;20284;-74
2021/11/28 08:10:40;;;;;;;33.13;22.97;;;;;;;;;;5069705;28;20284;-73
2021/11/28 08:13:07;;;;;;;37.03;22.73;;;;;;;;;;5051264;28;20316;-76
2021/11/28 08:15:35;;;;;;;37.67;23.90;;;;;;;;;;5062757;28;20219;-73
2021/11/28 08:18:01;;;;;;;36.43;23.47;;;;;;;;;;5062054;28;20218;-74
2021/11/28 08:20:31;;;;;;;33.97;23.17;;;;;;;;;;5068308;28;20226;-73
2021/11/28 08:23:00;;;;;;;32.63;22.97;;;;;;;;;;5052758;28;20368;-73
2021/11/28 08:25:30;;;;;;;37.43;23.40;;;;;;;;;;5051377;28;20219;-73
2021/11/28 08:27:56;;;;;;;35.53;23.53;;;;;;;;;;5068608;28;20692;-73
2021/11/28 08:30:24;;;;;;;39.93;25.63;;;;;;;;;;5051321;28;20230;-74
2021/11/28 08:32:54;;;;;;;35.57;23.80;;;;;;;;;;5052340;28;20221;-73
2021/11/28 08:35:42;;;;;;;35.23;23.77;;;;;;;;;;5055478;28;20222;-74
2021/11/28 08:38:08;;;;;;;42.03;24.50;;;;;;;;;;5068700;28;20229;-74
2021/11/28 08:40:36;;;;;;;41.20;24.07;;;;;;;;;;5032514;28;20235;-75
2021/11/28 08:43:04;;;;;;;39.50;24.33;;;;;;;;;;5032349;28;20251;-74
2021/11/28 08:45:31;;;;;;;38.90;23.57;;;;;;;;;;5053943;28;20596;-75
2021/11/28 08:47:57;;;;;;;35.93;23.57;;;;;;;;;;5068661;28;20227;-76
2021/11/28 08:50:25;;;;;;;37.93;23.23;;;;;;;;;;5050443;28;20215;-74
2021/11/28 08:53:03;;;;;;;37.50;22.73;;;;;;;;;;5051289;28;20210;-74
2021/11/28 08:55:42;;;;;;;35.50;21.23;;;;;;;;;;5034856;28;20264;-74
2021/11/28 08:58:12;;;;;;;35.70;22.37;;;;;;;;;;5050191;28;20325;-74
2021/11/28 09:00:39;;;;;;;35.07;21.77;;;;;;;;;;5070101;28;20928;-74
2021/11/28 09:03:06;;;;;;;32.97;21.33;;;;;;;;;;5072101;28;20239;-74
2021/11/28 09:05:32;;;;;;;33.77;21.07;;;;;;;;;;5072006;28;20210;-75
2021/11/28 09:08:00;;;;;;;33.20;20.53;;;;;;;;;;5054900;28;20230;-73
2021/11/28 09:10:33;;;;;;;41.63;25.80;;;;;;;;;;5054310;28;20263;-74
2021/11/28 09:12:59;;;;;;;39.13;23.50;;;;;;;;;;5055815;28;20211;-74
2021/11/28 09:15:26;;;;;;;37.63;22.23;;;;;;;;;;5068664;28;20207;-74
2021/11/28 09:17:58;;;;;;;35.93;20.97;;;;;;;;;;5053378;28;20676;-75
2021/11/28 09:20:26;;;;;;;33.43;22.53;;;;;;;;;;5020622;28;20251;-74
2021/11/28 09:25:24;;;;;;;34.83;21.43;;;;;;;;;;5071177;28;20218;-74
2021/11/28 09:27:51;;;;;;;38.87;24.17;;;;;;;;;;5049988;28;20268;-74
2021/11/28 09:30:18;;;;;;;33.50;22.43;;;;;;;;;;5053786;28;20215;-75
2021/11/28 09:32:48;;;;;;;34.83;23.47;;;;;;;;;;5050845;28;20408;-75
2021/11/28 09:35:14;;;;;;;29.57;20.17;;;;;;;;;;5033805;28;20716;-74
2021/11/28 09:37:40;;;;;;;32.77;22.83;;;;;;;;;;5052874;28;20227;-72
2021/11/28 09:40:08;;;;;;;36.77;23.47;;;;;;;;;;5051458;28;20219;-74
2021/11/28 09:42:39;;;;;;;33.27;22.17;;;;;;;;;;5070642;28;20702;-76
2021/11/28 09:45:09;;;;;;;37.30;22.43;;;;;;;;;;5053657;28;20223;-73
2021/11/28 09:47:34;;;;;;;34.63;22.50;;;;;;;;;;5070834;28;20219;-74
2021/11/28 09:50:06;;;;;;;34.50;22.03;;;;;;;;;;5049845;28;20218;-74
2021/11/28 09:52:35;;;;;;;34.03;21.57;;;;;;;;;;5037219;28;20249;-72
2021/11/28 09:55:04;;;;;;;38.03;23.17;;;;;;;;;;5066200;28;20696;-74
2021/11/28 09:57:32;;;;;;;36.03;22.83;;;;;;;;;;5059673;28;20211;-74
2021/11/28 09:59:59;;;;;;;33.10;21.10;;;;;;;;;;5071178;28;20767;-74
2021/11/28 10:02:29;;;;;;;36.53;22.80;;;;;;;;;;5070835;28;20218;-72
2021/11/28 10:04:55;;;;;;;38.53;22.07;;;;;;;;;;5033192;28;20239;-73
2021/11/28 10:07:21;;;;;;;34.73;23.23;;;;;;;;;;5186070;22;20507;-73
2021/11/28 10:09:47;;;;;;;35.47;23.33;;;;;;;;;;5059986;22;20220;-75
2021/11/28 10:12:16;;;;;;;36.50;23.37;;;;;;;;;;5010709;28;20746;-73
2021/11/28 10:14:46;;;;;;;40.17;24.00;;;;;;;;;;5035992;28;20250;-74
2021/11/28 10:17:12;;;;;;;38.63;22.00;;;;;;;;;;5044887;28;20223;-74
2021/11/28 10:19:37;;;;;;;38.57;23.77;;;;;;;;;;4987132;28;20240;-73
2021/11/28 10:22:04;;;;;;;37.47;23.57;;;;;;;;;;5046396;28;20212;-73
2021/11/28 10:24:30;;;;;;;38.90;22.73;;;;;;;;;;5004148;28;20242;-74
2021/11/28 10:27:01;;;;;;;39.70;22.23;;;;;;;;;;5039606;28;20721;-74
2021/11/28 10:29:31;;;;;;;34.80;20.70;;;;;;;;;;4995161;28;20286;-74
2021/11/28 10:31:59;;;;;;;38.53;22.23;;;;;;;;;;5010537;28;20237;-74
2021/11/28 10:34:37;;;;;;;41.00;22.97;;;;;;;;;;5015255;28;20728;-74
2021/11/28 10:37:07;;;;;;;38.13;22.77;;;;;;;;;;4999456;28;20223;-73
2021/11/28 10:39:42;;;;;;;36.57;22.10;;;;;;;;;;5036476;28;20433;-75
2021/11/28 10:42:16;;;;;;;36.47;21.40;;;;;;;;;;5044479;28;20215;-74
2021/11/28 10:44:44;;;;;;;40.37;22.33;;;;;;;;;;5016091;28;20238;-75
2021/11/28 10:47:13;;;;;;;37.03;21.43;;;;;;;;;;5012852;28;20221;-74
2021/11/28 10:49:43;;;;;;;38.30;22.03;;;;;;;;;;4982217;28;20223;-73
2021/11/28 10:52:15;;;;;;;40.90;23.27;;;;;;;;;;5019786;28;20243;-74
2021/11/28 10:54:45;;;;;;;37.50;23.03;;;;;;;;;;5025438;28;20225;-74
2021/11/28 10:57:13;;;;;;;36.67;21.67;;;;;;;;;;5048154;28;20216;-74
2021/11/28 10:59:42;;;;;;;35.73;20.63;;;;;;;;;;5014864;28;20216;-75
2021/11/28 11:02:30;;;;;;;31.77;19.00;;;;;;;;;;4999511;28;20224;-72
2021/11/28 11:04:57;;;;;;;28.63;18.60;;;;;;;;;;5000025;28;20262;-75
2021/11/28 11:07:24;;;;;;;29.93;18.27;;;;;;;;;;5011336;28;20224;-75
2021/11/28 11:09:53;;;;;;;29.63;18.23;;;;;;;;;;5022705;28;20216;-74
2021/11/28 11:12:33;;;;;;;29.07;18.07;;;;;;;;;;4991900;28;20228;-75
2021/11/28 11:15:03;;;;;;;27.57;17.67;;;;;;;;;;5018275;28;20212;-73
2021/11/28 11:17:31;;;;;;;24.47;16.33;;;;;;;;;;4994671;28;20240;-74
2021/11/28 11:20:00;;;;;;;23.70;15.73;;;;;;;;;;4995962;28;20250;-75
2021/11/28 11:22:29;;;;;;;21.97;15.37;;;;;;;;;;5010462;28;20251;-74
2021/11/28 11:25:01;;;;;;;22.33;15.33;;;;;;;;;;4977158;28;20224;-75
2021/11/28 11:27:33;;;;;;;25.67;16.63;;;;;;;;;;5008163;28;20307;-75
2021/11/28 11:30:03;;;;;;;27.47;17.60;;;;;;;;;;5009963;28;20216;-75
2021/11/28 11:32:54;;;;;;;27.47;17.37;;;;;;;;;;4997122;28;20222;-75
2021/11/28 11:35:26;;;;;;;44.37;28.27;;;;;;;;;;4981207;28;20343;-76
2021/11/28 11:38:02;;;;;;;27.13;18.07;;;;;;;;;;5013750;28;20258;-76
2021/11/28 11:40:28;;;;;;;26.50;17.50;;;;;;;;;;5039619;28;20314;-77
2021/11/28 11:42:53;;;;;;;27.70;17.93;;;;;;;;;;5023396;28;20262;-75
2021/11/28 11:45:23;;;;;;;27.87;18.10;;;;;;;;;;5015291;28;20231;-77
2021/11/28 11:47:49;;;;;;;29.00;18.87;;;;;;;;;;4997204;28;21059;-75
2021/11/28 11:50:16;;;;;;;30.77;18.57;;;;;;;;;;5041247;28;20298;-75
2021/11/28 11:52:43;;;;;;;30.30;18.90;;;;;;;;;;4998234;28;20236;-76
2021/11/28 11:55:21;;;;;;;28.13;17.97;;;;;;;;;;5030820;28;20243;-76
2021/11/28 11:58:12;;;;;;;27.00;17.87;;;;;;;;;;5026140;28;20231;-76
2021/11/28 12:01:05;;;;;;;29.80;18.40;;;;;;;;;;5025334;28;20282;-76
2021/11/28 12:03:46;;;;;;;28.50;18.13;;;;;;;;;;5030556;28;20563;-77
2021/11/28 12:06:15;;;;;;;29.93;18.43;;;;;;;;;;5032798;28;20265;-77
2021/11/28 12:08:54;;;;;;;26.97;18.63;;;;;;;;;;5018050;28;20665;-76
2021/11/28 12:11:22;;;;;;;26.27;18.33;;;;;;;;;;5013421;28;20228;-76
2021/11/28 12:13:55;;;;;;;25.80;17.30;;;;;;;;;;5003497;28;20240;-76
2021/11/28 12:16:26;;;;;;;26.63;17.77;;;;;;;;;;5013341;28;20239;-77
2021/11/28 12:18:53;;;;;;;24.60;16.57;;;;;;;;;;5017286;28;20227;-77
2021/11/28 12:21:32;;;;;;;25.13;17.33;;;;;;;;;;4996922;28;20747;-77
2021/11/28 12:24:10;;;;;;;26.80;16.87;;;;;;;;;;5029747;28;20315;-76
2021/11/28 12:26:46;;;;;;;25.20;17.50;;;;;;;;;;5029166;28;20251;-77
2021/11/28 12:29:15;;;;;;;28.23;17.00;;;;;;;;;;5017578;28;20282;-77
2021/11/28 12:31:48;;;;;;;23.87;16.53;;;;;;;;;;5027622;28;20274;-77
2021/11/28 12:34:23;;;;;;;23.07;16.67;;;;;;;;;;4997189;28;20224;-76
2021/11/28 12:36:51;;;;;;;25.50;17.20;;;;;;;;;;5000389;28;20307;-76
2021/11/28 12:39:18;;;;;;;28.53;16.87;;;;;;;;;;5000777;28;20220;-76
2021/11/28 12:41:55;;;;;;;25.43;16.57;;;;;;;;;;5035068;28;20413;-76
2021/11/28 12:44:22;;;;;;;25.03;17.33;;;;;;;;;;5034081;28;20593;-76
2021/11/28 12:47:07;;;;;;;26.50;17.17;;;;;;;;;;5033508;28;20212;-76
2021/11/28 12:49:45;;;;;;;21.80;16.13;;;;;;;;;;5033076;28;20215;-77
2021/11/28 12:52:24;;;;;;;22.20;17.37;;;;;;;;;;5033506;28;20298;-77
2021/11/28 12:55:02;;;;;;;24.23;17.10;;;;;;;;;;5033993;28;20231;-77
2021/11/28 12:57:35;;;;;;;23.10;15.93;;;;;;;;;;5032420;28;20231;-77
2021/11/28 13:00:19;;;;;;;24.57;16.53;;;;;;;;;;5033238;28;20304;-77
2021/11/28 13:02:46;;;;;;;23.03;16.70;;;;;;;;;;5033061;28;20685;-77
2021/11/28 13:05:30;;;;;;;24.70;16.40;;;;;;;;;;5015582;28;20224;-77
2021/11/28 13:08:15;;;;;;;25.10;16.47;;;;;;;;;;5025556;28;20303;-77
2021/11/28 13:10:42;;;;;;;20.40;15.53;;;;;;;;;;5047558;28;20239;-77
2021/11/28 13:13:17;;;;;;;25.80;16.87;;;;;;;;;;5015639;28;20232;-77
2021/11/28 13:15:50;;;;;;;26.63;18.20;;;;;;;;;;5022120;28;20306;-77
2021/11/28 13:18:31;;;;;;;26.37;17.53;;;;;;;;;;5016965;28;20220;-76
2021/11/28 13:21:04;;;;;;;30.00;18.83;;;;;;;;;;5020832;28;20768;-75
2021/11/28 13:23:52;;;;;;;28.40;18.53;;;;;;;;;;5014539;28;20358;-77
2021/11/28 13:26:27;;;;;;;27.33;18.60;;;;;;;;;;5017057;28;20227;-76
2021/11/28 13:28:57;;;;;;;26.87;18.33;;;;;;;;;;5016015;28;20321;-76
2021/11/28 13:31:23;;;;;;;27.23;18.13;;;;;;;;;;5012105;28;20220;-76
2021/11/28 13:33:59;;;;;;;28.17;17.50;;;;;;;;;;5013126;28;20250;-76
2021/11/28 13:36:44;;;;;;;25.23;17.67;;;;;;;;;;5030618;28;20215;-77
2021/11/28 13:39:17;;;;;;;29.50;19.67;;;;;;;;;;5013401;28;20246;-76
2021/11/28 13:41:46;;;;;;;29.03;19.27;;;;;;;;;;4997078;28;20228;-77
2021/11/28 13:44:15;;;;;;;33.67;22.37;;;;;;;;;;4999583;28;20229;-77
2021/11/28 13:46:48;;;;;;;30.80;21.93;;;;;;;;;;5013460;28;20227;-77
2021/11/28 13:49:24;;;;;;;27.97;20.13;;;;;;;;;;5016334;28;20216;-76
2021/11/28 13:52:01;;;;;;;27.67;18.87;;;;;;;;;;5008817;28;20277;-77
2021/11/28 13:54:36;;;;;;;27.87;19.37;;;;;;;;;;5013166;28;20608;-78
2021/11/28 13:57:08;;;;;;;28.90;19.40;;;;;;;;;;5030068;28;20224;-77
2021/11/28 13:59:40;;;;;;;28.87;20.07;;;;;;;;;;4998164;28;20287;-78
2021/11/28 14:02:24;;;;;;;29.13;20.43;;;;;;;;;;5001668;28;20228;-77
2021/11/28 14:04:50;;;;;;;31.33;20.40;;;;;;;;;;5015711;28;20224;-78
2021/11/28 14:07:26;;;;;;;31.17;20.77;;;;;;;;;;5015531;28;20251;-77
2021/11/28 14:10:01;;;;;;;29.97;21.27;;;;;;;;;;5003653;28;20241;-78
2021/11/28 14:12:32;;;;;;;29.33;21.10;;;;;;;;;;4991531;28;20299;-78
2021/11/28 14:15:03;;;;;;;32.30;21.43;;;;;;;;;;4983645;28;20226;-77
2021/11/28 14:17:29;;;;;;;31.13;20.47;;;;;;;;;;5005927;28;20236;-76
2021/11/28 14:20:18;;;;;;;29.50;20.87;;;;;;;;;;5028590;28;20227;-77
2021/11/28 14:22:48;;;;;;;31.90;22.23;;;;;;;;;;5001016;28;20223;-76
2021/11/28 14:25:40;;;;;;;30.07;22.00;;;;;;;;;;5045097;28;20227;-78
2021/11/28 14:28:30;;;;;;;34.13;22.87;;;;;;;;;;5017000;28;20220;-76
2021/11/28 14:31:07;;;;;;;32.87;21.60;;;;;;;;;;5012838;28;20232;-75
2021/11/28 14:33:38;;;;;;;35.50;23.40;;;;;;;;;;4982662;28;20770;-75
2021/11/28 14:36:06;;;;;;;33.87;23.37;;;;;;;;;;5017041;28;20224;-74
2021/11/28 14:38:42;;;;;;;33.87;23.43;;;;;;;;;;5013885;28;20232;-75
2021/11/28 14:41:23;;;;;;;32.23;23.03;;;;;;;;;;5027099;28;20230;-75
2021/11/28 14:43:54;;;;;;;34.10;23.60;;;;;;;;;;4987086;28;20653;-74
2021/11/28 14:46:28;;;;;;;33.07;22.13;;;;;;;;;;4990573;28;20271;-77